Spencer, WI

2:47 PM CDT on May 25, 2015 (GMT -0500)
Marshfield Municipal | | Change Station
CLOSE
Current Station
Airport
Location: Marshfield,
Elevation: 1276 ft
Nearby Weather Stations

Elev 1276 ft 44.64 °N, 90.19 °W | Updated 27 minutes ago

Overcast
Overcast
69 °F
Feels Like 69 °F
N
10
Wind Variable Wind from WSW

Today
High -- | Low -- °F
--% Chance of Precip.
Yesterday
High -- | Low -- °F
Precip. -- in
5:23 AM 8:33 PM
Waxing Crescent, 51% visible
Pressure 29.75 in
Visibility 10.0 miles
Clouds Scattered Clouds 2600 ft
Mostly Cloudy 3500 ft
Overcast 4700 ft
Dew Point 60 °F
Humidity 73%
Rainfall 0.06 in
Snow Depth Not available.
UV 3 out of 12
Pollen .90 out of 12
Air Quality Not available.
Flu Activity Sporadic
SPECI KMFI 251920Z AUTO 24009KT 10SM SCT026 BKN035 OVC047 21/16 A2975 RMK AO2 T02060156

More Conditions Fewer Conditions

Pressure 29.75 in
Visibility 10.0 miles
Clouds Scattered Clouds 2600 ft
Mostly Cloudy 3500 ft
Overcast 4700 ft
Dew Point 60 °F
Humidity 73%
Rainfall 0.06 in
Snow Depth Not available.
UV 3 out of 12
Pollen .90 out of 12
Air Quality Not available.
Flu Activity Sporadic
SPECI KMFI 251920Z AUTO 24009KT 10SM SCT026 BKN035 OVC047 21/16 A2975 RMK AO2 T02060156

More Conditions Fewer Conditions

10-Day Weather Forecast

Almanac

Astronomy

May. 25, 2015 Rise Set
Actual Time
Civil Twilight
Nautical Twilight
Astronomical Twilight
Moon
Length of Visible Light
Length of Day
Tomorrow will be .
, % of the Moon is Illuminated

Today's Extremes

State Highs State Lows

Community

WunderPhotos

Upload Photos

1,824,102 photos uploaded!

WunderBlogs® & News

Nearby

Air Quality

  Air Quality AQ Index Pollutant
Not available.

Snow Depth

Station Depth Elevation

Earthquake Activity

City Distance Mag. Time & Date
Minimum magnitude displayed is 2.5.

Coastal Water Temperatures

Place Temperature

Stations

Nearby Weather Stations

Station Location Temp. Windchill Dew Point Humidity Wind Precip. Elev Updated Type